GLD1794 RPVE-RPVB
Flight info
| Callsign | GLD1794 |
|---|---|
| Flight time | 0h 36m |
| Altitude | 5000 |
| Route | KLO8A KLO TR8 GALIA GALIA3P |
| Aircraft | BE58/L-SDFGRY/C |
Departure
| Time | 2026-05-07 19:11 |
|---|---|
| Airport | Godofredo P. Ramos Airport (RPVE) |
Arrival
| Time | 2026-05-07 19:47 |
|---|---|
| Airport | Bacolod-Silay International Airport (RPVB) |
| Time | Latitude | Longitude | Altitude | Speed | Heading |
|---|---|---|---|---|---|
| 2026-05-07 19:11 | 11.95590 | 122.01649 | 4460 ft | 117 kts | 64° |
| 2026-05-07 19:11 | 11.95939 | 122.02401 | 4950 ft | 119 kts | 74° |
| 2026-05-07 19:11 | 11.95834 | 122.03331 | 5030 ft | 152 kts | 115° |
| 2026-05-07 19:11 | 11.95135 | 122.04263 | 5035 ft | 176 kts | 125° |
| 2026-05-07 19:12 | 11.94326 | 122.05256 | 5031 ft | 187 kts | 124° |
| 2026-05-07 19:12 | 11.93492 | 122.06308 | 5027 ft | 193 kts | 124° |
| 2026-05-07 19:12 | 11.92646 | 122.07386 | 5027 ft | 195 kts | 124° |
| 2026-05-07 19:12 | 11.91803 | 122.08461 | 5029 ft | 192 kts | 124° |
| 2026-05-07 19:13 | 11.90973 | 122.09520 | 5027 ft | 190 kts | 124° |
| 2026-05-07 19:13 | 11.90151 | 122.10568 | 5027 ft | 188 kts | 124° |
| 2026-05-07 19:13 | 11.89338 | 122.11606 | 5025 ft | 187 kts | 124° |
| 2026-05-07 19:13 | 11.88525 | 122.12642 | 5025 ft | 187 kts | 124° |
| 2026-05-07 19:14 | 11.87712 | 122.13680 | 5026 ft | 187 kts | 124° |
| 2026-05-07 19:14 | 11.86900 | 122.14715 | 5026 ft | 187 kts | 125° |
| 2026-05-07 19:14 | 11.86085 | 122.15753 | 5028 ft | 187 kts | 124° |
| 2026-05-07 19:14 | 11.85269 | 122.16795 | 5029 ft | 188 kts | 124° |
| 2026-05-07 19:15 | 11.84451 | 122.17836 | 5031 ft | 187 kts | 124° |
| 2026-05-07 19:15 | 11.83636 | 122.18874 | 5036 ft | 187 kts | 124° |
| 2026-05-07 19:15 | 11.82821 | 122.19914 | 5036 ft | 187 kts | 124° |
| 2026-05-07 19:15 | 11.82006 | 122.20950 | 5036 ft | 187 kts | 124° |
| 2026-05-07 19:16 | 11.81203 | 122.21974 | 5038 ft | 187 kts | 124° |
| 2026-05-07 19:16 | 11.80383 | 122.23020 | 5037 ft | 189 kts | 124° |
| 2026-05-07 19:16 | 11.79560 | 122.24067 | 5038 ft | 189 kts | 124° |
| 2026-05-07 19:16 | 11.78737 | 122.25115 | 5039 ft | 189 kts | 124° |
| 2026-05-07 19:17 | 11.77918 | 122.26158 | 5040 ft | 188 kts | 124° |
| 2026-05-07 19:17 | 11.77103 | 122.27194 | 5045 ft | 186 kts | 123° |
| 2026-05-07 19:17 | 11.76294 | 122.28225 | 5047 ft | 186 kts | 123° |
| 2026-05-07 19:17 | 11.75488 | 122.29252 | 5048 ft | 185 kts | 122° |
| 2026-05-07 19:18 | 11.74685 | 122.30273 | 5047 ft | 184 kts | 123° |
| 2026-05-07 19:18 | 11.73885 | 122.31290 | 5045 ft | 184 kts | 123° |
| 2026-05-07 19:18 | 11.73085 | 122.32310 | 5045 ft | 185 kts | 123° |
| 2026-05-07 19:18 | 11.72282 | 122.33332 | 5044 ft | 184 kts | 123° |
| 2026-05-07 19:19 | 11.71480 | 122.34352 | 5043 ft | 184 kts | 123° |
| 2026-05-07 19:19 | 11.70682 | 122.35367 | 5042 ft | 184 kts | 124° |
| 2026-05-07 19:19 | 11.69891 | 122.36374 | 5041 ft | 185 kts | 124° |
| 2026-05-07 19:19 | 11.69085 | 122.37400 | 5041 ft | 185 kts | 124° |
| 2026-05-07 19:20 | 11.68241 | 122.38400 | 5039 ft | 188 kts | 134° |
| 2026-05-07 19:20 | 11.67157 | 122.39171 | 5043 ft | 191 kts | 141° |
| 2026-05-07 19:20 | 11.66062 | 122.39938 | 5042 ft | 191 kts | 140° |
| 2026-05-07 19:20 | 11.64972 | 122.40710 | 5043 ft | 190 kts | 140° |
| 2026-05-07 19:21 | 11.63881 | 122.41479 | 5042 ft | 190 kts | 140° |
| 2026-05-07 19:21 | 11.62791 | 122.42246 | 5042 ft | 190 kts | 140° |
| 2026-05-07 19:21 | 11.61699 | 122.43015 | 5042 ft | 191 kts | 140° |
| 2026-05-07 19:21 | 11.60605 | 122.43784 | 5043 ft | 191 kts | 140° |
| 2026-05-07 19:22 | 11.59508 | 122.44558 | 5044 ft | 193 kts | 141° |
| 2026-05-07 19:22 | 11.58399 | 122.45338 | 5042 ft | 194 kts | 141° |
| 2026-05-07 19:22 | 11.57285 | 122.46122 | 5043 ft | 194 kts | 141° |
| 2026-05-07 19:22 | 11.56172 | 122.46905 | 5044 ft | 194 kts | 141° |
| 2026-05-07 19:23 | 11.55058 | 122.47689 | 5045 ft | 195 kts | 141° |
| 2026-05-07 19:23 | 11.53942 | 122.48473 | 5047 ft | 195 kts | 141° |
| 2026-05-07 19:23 | 11.52826 | 122.49259 | 5049 ft | 195 kts | 141° |
| 2026-05-07 19:23 | 11.51707 | 122.50047 | 5049 ft | 196 kts | 141° |
| 2026-05-07 19:24 | 11.50597 | 122.50828 | 5048 ft | 197 kts | 141° |
| 2026-05-07 19:24 | 11.49470 | 122.51620 | 5044 ft | 196 kts | 141° |
| 2026-05-07 19:24 | 11.48345 | 122.52412 | 5043 ft | 196 kts | 141° |
| 2026-05-07 19:24 | 11.47224 | 122.53200 | 5042 ft | 195 kts | 141° |
| 2026-05-07 19:25 | 11.46106 | 122.53986 | 5042 ft | 195 kts | 141° |
| 2026-05-07 19:25 | 11.44985 | 122.54774 | 5041 ft | 195 kts | 141° |
| 2026-05-07 19:25 | 11.43864 | 122.55562 | 5040 ft | 195 kts | 141° |
| 2026-05-07 19:25 | 11.42746 | 122.56348 | 5040 ft | 195 kts | 141° |
| 2026-05-07 19:26 | 11.41629 | 122.57133 | 5039 ft | 195 kts | 140° |
| 2026-05-07 19:26 | 11.40891 | 122.57653 | 5037 ft | 195 kts | 141° |
| 2026-05-07 19:26 | 11.39779 | 122.58433 | 5036 ft | 193 kts | 140° |
| 2026-05-07 19:26 | 11.38673 | 122.59210 | 5035 ft | 193 kts | 141° |
| 2026-05-07 19:27 | 11.37569 | 122.59988 | 5034 ft | 193 kts | 141° |
| 2026-05-07 19:27 | 11.36463 | 122.60763 | 5037 ft | 193 kts | 140° |
| 2026-05-07 19:27 | 11.35359 | 122.61538 | 5036 ft | 193 kts | 140° |
| 2026-05-07 19:27 | 11.34254 | 122.62316 | 5031 ft | 193 kts | 140° |
| 2026-05-07 19:28 | 11.33149 | 122.63092 | 5032 ft | 193 kts | 140° |
| 2026-05-07 19:28 | 11.32055 | 122.63859 | 5029 ft | 193 kts | 140° |
| 2026-05-07 19:28 | 11.30948 | 122.64637 | 5028 ft | 193 kts | 141° |
| 2026-05-07 19:28 | 11.29781 | 122.65329 | 5023 ft | 198 kts | 155° |
| 2026-05-07 19:29 | 11.28435 | 122.65671 | 5024 ft | 200 kts | 161° |
| 2026-05-07 19:29 | 11.27085 | 122.66012 | 5027 ft | 200 kts | 161° |
| 2026-05-07 19:29 | 11.25736 | 122.66357 | 5028 ft | 200 kts | 160° |
| 2026-05-07 19:29 | 11.24380 | 122.66700 | 5029 ft | 200 kts | 160° |
| 2026-05-07 19:30 | 11.23025 | 122.67042 | 5027 ft | 201 kts | 160° |
| 2026-05-07 19:30 | 11.21666 | 122.67386 | 5026 ft | 201 kts | 161° |
| 2026-05-07 19:30 | 11.20304 | 122.67730 | 5027 ft | 201 kts | 161° |
| 2026-05-07 19:30 | 11.18938 | 122.68077 | 5027 ft | 203 kts | 160° |
| 2026-05-07 19:31 | 11.17563 | 122.68423 | 5027 ft | 204 kts | 160° |
| 2026-05-07 19:31 | 11.16185 | 122.68771 | 5014 ft | 204 kts | 161° |
| 2026-05-07 19:31 | 11.14812 | 122.69119 | 5014 ft | 203 kts | 161° |
| 2026-05-07 19:31 | 11.13442 | 122.69465 | 5012 ft | 203 kts | 161° |
| 2026-05-07 19:32 | 11.12074 | 122.69811 | 5012 ft | 202 kts | 160° |
| 2026-05-07 19:32 | 11.10714 | 122.70155 | 5018 ft | 201 kts | 160° |
| 2026-05-07 19:32 | 11.09358 | 122.70497 | 5017 ft | 200 kts | 160° |
| 2026-05-07 19:32 | 11.08022 | 122.70835 | 5017 ft | 200 kts | 160° |
| 2026-05-07 19:33 | 11.06671 | 122.71178 | 5018 ft | 200 kts | 160° |
| 2026-05-07 19:33 | 11.05319 | 122.71520 | 5018 ft | 201 kts | 160° |
| 2026-05-07 19:33 | 11.03965 | 122.71861 | 5011 ft | 200 kts | 160° |
| 2026-05-07 19:33 | 11.02606 | 122.72204 | 5012 ft | 202 kts | 160° |
| 2026-05-07 19:34 | 11.01236 | 122.72550 | 5011 ft | 203 kts | 160° |
| 2026-05-07 19:34 | 10.99860 | 122.72898 | 5012 ft | 204 kts | 160° |
| 2026-05-07 19:34 | 10.98474 | 122.73248 | 5012 ft | 205 kts | 160° |
| 2026-05-07 19:34 | 10.97082 | 122.73599 | 5011 ft | 206 kts | 161° |
| 2026-05-07 19:35 | 10.95706 | 122.73948 | 5010 ft | 206 kts | 161° |
| 2026-05-07 19:35 | 10.94314 | 122.74302 | 5010 ft | 206 kts | 161° |
| 2026-05-07 19:35 | 10.92931 | 122.74655 | 5009 ft | 204 kts | 161° |
| 2026-05-07 19:35 | 10.91554 | 122.75005 | 4999 ft | 204 kts | 161° |
| 2026-05-07 19:36 | 10.90180 | 122.75353 | 4999 ft | 203 kts | 160° |
| 2026-05-07 19:36 | 10.88806 | 122.75702 | 4999 ft | 204 kts | 161° |
| 2026-05-07 19:36 | 10.87433 | 122.76051 | 4998 ft | 203 kts | 160° |
| 2026-05-07 19:36 | 10.86065 | 122.76398 | 4999 ft | 202 kts | 160° |
| 2026-05-07 19:37 | 10.84699 | 122.76744 | 5002 ft | 202 kts | 160° |
| 2026-05-07 19:37 | 10.83332 | 122.77092 | 5000 ft | 203 kts | 160° |
| 2026-05-07 19:37 | 10.81965 | 122.77439 | 5000 ft | 202 kts | 160° |
| 2026-05-07 19:37 | 10.80599 | 122.77785 | 4997 ft | 202 kts | 160° |
| 2026-05-07 19:38 | 10.79241 | 122.78130 | 4996 ft | 201 kts | 160° |
| 2026-05-07 19:38 | 10.77886 | 122.78474 | 4996 ft | 200 kts | 160° |
| 2026-05-07 19:38 | 10.76577 | 122.78803 | 4793 ft | 180 kts | 160° |
| 2026-05-07 19:38 | 10.75403 | 122.79095 | 4619 ft | 168 kts | 159° |
| 2026-05-07 19:39 | 10.74302 | 122.79377 | 4421 ft | 163 kts | 160° |
| 2026-05-07 19:39 | 10.73213 | 122.79656 | 4215 ft | 160 kts | 159° |
| 2026-05-07 19:39 | 10.72134 | 122.79931 | 4009 ft | 159 kts | 161° |
| 2026-05-07 19:39 | 10.71059 | 122.80204 | 3800 ft | 159 kts | 160° |
| 2026-05-07 19:40 | 10.69984 | 122.80477 | 3589 ft | 159 kts | 159° |
| 2026-05-07 19:40 | 10.68912 | 122.80749 | 3384 ft | 158 kts | 158° |
| 2026-05-07 19:40 | 10.67973 | 122.81245 | 3183 ft | 150 kts | 133° |
| 2026-05-07 19:40 | 10.67378 | 122.82095 | 3006 ft | 145 kts | 108° |
| 2026-05-07 19:41 | 10.67208 | 122.83043 | 2999 ft | 131 kts | 86° |
| 2026-05-07 19:41 | 10.67399 | 122.83911 | 2992 ft | 123 kts | 66° |
| 2026-05-07 19:41 | 10.67810 | 122.84672 | 2997 ft | 127 kts | 62° |
| 2026-05-07 19:41 | 10.68241 | 122.85484 | 3005 ft | 134 kts | 62° |
| 2026-05-07 19:42 | 10.68694 | 122.86328 | 3009 ft | 139 kts | 62° |
| 2026-05-07 19:42 | 10.69168 | 122.87200 | 3013 ft | 143 kts | 62° |
| 2026-05-07 19:42 | 10.69651 | 122.88093 | 3012 ft | 145 kts | 62° |
| 2026-05-07 19:42 | 10.70139 | 122.88994 | 3013 ft | 145 kts | 62° |
| 2026-05-07 19:43 | 10.70635 | 122.89906 | 3005 ft | 148 kts | 62° |
| 2026-05-07 19:43 | 10.71134 | 122.90827 | 3002 ft | 145 kts | 62° |
| 2026-05-07 19:43 | 10.71603 | 122.91698 | 2904 ft | 135 kts | 64° |
| 2026-05-07 19:43 | 10.71959 | 122.92529 | 2669 ft | 123 kts | 72° |
| 2026-05-07 19:44 | 10.72219 | 122.93329 | 2401 ft | 118 kts | 72° |
| 2026-05-07 19:44 | 10.72472 | 122.94112 | 2149 ft | 115 kts | 71° |
| 2026-05-07 19:44 | 10.72708 | 122.94869 | 1895 ft | 110 kts | 68° |
| 2026-05-07 19:44 | 10.72965 | 122.95631 | 1717 ft | 114 kts | 67° |
| 2026-05-07 19:45 | 10.73247 | 122.96360 | 1565 ft | 106 kts | 60° |
| 2026-05-07 19:45 | 10.73505 | 122.97039 | 1374 ft | 101 kts | 63° |
| 2026-05-07 19:45 | 10.73744 | 122.97716 | 1279 ft | 103 kts | 64° |
| 2026-05-07 19:45 | 10.74007 | 122.98361 | 1119 ft | 101 kts | 64° |
| 2026-05-07 19:46 | 10.74315 | 122.99030 | 996 ft | 103 kts | 61° |
| 2026-05-07 19:46 | 10.74677 | 122.99665 | 888 ft | 104 kts | 55° |
| 2026-05-07 19:46 | 10.75161 | 123.00234 | 709 ft | 108 kts | 44° |
| 2026-05-07 19:46 | 10.75754 | 123.00718 | 448 ft | 111 kts | 39° |
| 2026-05-07 19:47 | 10.76377 | 123.01151 | 239 ft | 104 kts | 32° |
| 2026-05-07 19:47 | 10.76924 | 123.01476 | 97 ft | 82 kts | 32° |
| 2026-05-07 19:47 | 10.77379 | 123.01739 | 83 ft | 67 kts | 32° |
| 2026-05-07 19:47 | 10.77612 | 123.01878 | 82 ft | 11 kts | 27° |
| 2026-05-07 19:48 | 10.77669 | 123.01883 | 84 ft | 6 kts | 334° |
| 2026-05-07 19:48 | 10.77695 | 123.01853 | 84 ft | 6 kts | 303° |
| 2026-05-07 19:48 | 10.77711 | 123.01821 | 83 ft | 5 kts | 296° |
| 2026-05-07 19:48 | 10.77737 | 123.01773 | 82 ft | 10 kts | 299° |
| 2026-05-07 19:49 | 10.77785 | 123.01742 | 81 ft | 8 kts | 328° |
| 2026-05-07 19:49 | 10.77824 | 123.01712 | 81 ft | 6 kts | 320° |
| 2026-05-07 19:49 | 10.77852 | 123.01676 | 81 ft | 7 kts | 294° |
| 2026-05-07 19:49 | 10.77876 | 123.01642 | 84 ft | 4 kts | 353° |
| 2026-05-07 19:50 | 10.77886 | 123.01636 | 82 ft | 1 kts | 274° |
| 2026-05-07 19:50 | 10.77884 | 123.01633 | 82 ft | 0 kts | 217° |